createdAt,value
2017-09-21T00:00:04.843Z,1021.182
2017-09-21T00:03:00.035Z,1021.156
2017-09-21T00:05:55.134Z,1021.181
2017-09-21T00:08:50.297Z,1021.247
2017-09-21T00:11:45.443Z,1021.337
2017-09-21T00:14:40.629Z,1021.418
2017-09-21T00:17:35.798Z,1021.464
2017-09-21T00:20:30.952Z,1021.468
2017-09-21T00:23:26.120Z,1021.478
2017-09-21T00:26:21.154Z,1021.485
2017-09-21T00:32:11.498Z,1021.559
2017-09-21T00:35:06.591Z,1021.537
2017-09-21T00:38:01.755Z,1021.507
2017-09-21T00:40:56.963Z,1021.435
2017-09-21T00:43:52.068Z,1021.399
2017-09-21T00:46:47.129Z,1021.404
2017-09-21T00:49:42.306Z,1021.406
2017-09-21T00:52:37.458Z,1021.435
2017-09-21T00:55:32.615Z,1021.438
2017-09-21T00:59:58.267Z,1021.513
2017-09-21T01:02:43.619Z,1021.588
2017-09-21T01:05:38.355Z,1021.614
2017-09-21T01:08:33.460Z,1021.610
2017-09-21T01:11:28.608Z,1021.645
2017-09-21T01:15:54.206Z,1021.685
2017-09-21T01:18:39.585Z,1021.727
2017-09-21T01:21:34.260Z,1021.761
2017-09-21T01:24:29.272Z,1021.744
2017-09-21T01:27:24.378Z,1021.711
2017-09-21T01:36:49.344Z,1021.692
2017-09-21T01:39:33.910Z,1021.660
2017-09-21T01:42:28.478Z,1021.641
2017-09-21T01:45:23.366Z,1021.661
2017-09-21T01:48:18.424Z,1021.689
2017-09-21T01:51:13.401Z,1021.733
2017-09-21T02:00:38.943Z,1021.744
2017-09-21T02:03:33.418Z,1021.666
2017-09-21T02:06:28.245Z,1021.641
2017-09-21T02:09:23.254Z,1021.598
2017-09-21T02:12:18.258Z,1021.548
2017-09-21T02:15:13.489Z,1021.553
2017-09-21T02:23:24.954Z,1021.514
2017-09-21T02:26:09.218Z,1021.535
2017-09-21T02:29:03.446Z,1021.541
2017-09-21T02:31:58.233Z,1021.489
2017-09-21T02:34:53.249Z,1021.472
2017-09-21T02:38:56.106Z,1021.432
2017-09-21T02:41:41.947Z,1021.432
2017-09-21T02:50:27.163Z,1021.454
2017-09-21T02:56:05.455Z,1021.514
2017-09-21T02:59:00.320Z,1021.533
2017-09-21T03:01:55.235Z,1021.466
2017-09-21T03:04:50.236Z,1021.370
2017-09-21T03:13:24.351Z,1021.364
2017-09-21T03:16:08.447Z,1021.339
2017-09-21T03:19:02.650Z,1021.351
2017-09-21T03:21:57.397Z,1021.381
2017-09-21T03:24:52.248Z,1021.399
2017-09-21T03:31:21.857Z,1021.334
2017-09-21T03:34:06.360Z,1021.280
2017-09-21T03:37:00.690Z,1021.214
2017-09-21T03:39:55.543Z,1021.173
2017-09-21T03:42:50.553Z,1021.210
2017-09-21T03:54:02.966Z,1021.253
2017-09-21T03:59:40.832Z,1021.339
2017-09-21T04:02:35.555Z,1021.356
2017-09-21T04:05:30.542Z,1021.411
2017-09-21T04:08:25.619Z,1021.448
2017-09-21T04:25:11.283Z,1021.372
2017-09-21T04:28:05.344Z,1021.411
2017-09-21T04:30:59.923Z,1021.430
2017-09-21T04:33:54.899Z,1021.455
2017-09-21T04:44:10.517Z,1021.568
2017-09-21T04:46:54.456Z,1021.571
2017-09-21T04:49:48.538Z,1021.570
2017-09-21T04:52:43.285Z,1021.565
2017-09-21T05:04:51.926Z,1021.627
2017-09-21T05:07:35.851Z,1021.616
2017-09-21T05:10:29.915Z,1021.630
2017-09-21T05:13:24.568Z,1021.607
2017-09-21T05:16:19.396Z,1021.578
2017-09-21T05:29:13.247Z,1021.439
2017-09-21T05:31:57.005Z,1021.443
2017-09-21T05:34:51.067Z,1021.494
2017-09-21T05:37:45.749Z,1021.578
2017-09-21T05:51:47.229Z,1021.528
2017-09-21T05:54:31.027Z,1021.563
2017-09-21T05:57:25.039Z,1021.560
2017-09-21T06:10:29.850Z,1021.628
2017-09-21T06:13:13.669Z,1021.674
2017-09-21T06:16:07.736Z,1021.636
2017-09-21T06:29:57.781Z,1021.562
2017-09-21T06:32:41.660Z,1021.578
2017-09-21T06:35:35.753Z,1021.562
2017-09-21T06:38:30.486Z,1021.612
2017-09-21T06:41:25.568Z,1021.696
2017-09-21T06:49:36.888Z,1021.804
2017-09-21T06:52:21.101Z,1021.785
2017-09-21T06:55:15.342Z,1021.803
2017-09-21T06:58:10.167Z,1021.754
2017-09-21T07:01:04.952Z,1021.781
2017-09-21T07:08:19.980Z,1021.812
2017-09-21T07:11:04.245Z,1021.778
2017-09-21T07:13:58.585Z,1021.793
2017-09-21T07:16:53.384Z,1021.817
2017-09-21T07:19:48.293Z,1021.834
2017-09-21T07:22:43.246Z,1021.828
2017-09-21T07:25:38.418Z,1021.837
2017-09-21T07:31:45.747Z,1021.812
2017-09-21T07:34:30.174Z,1021.813
2017-09-21T07:37:24.659Z,1021.825
2017-09-21T07:40:19.537Z,1021.885
2017-09-21T07:43:14.665Z,1021.852
2017-09-21T07:46:09.817Z,1021.926
2017-09-21T07:50:46.729Z,1021.912
2017-09-21T07:53:31.893Z,1021.923
2017-09-21T07:56:26.653Z,1021.932
2017-09-21T07:59:21.630Z,1021.939
2017-09-21T08:02:16.649Z,1021.888
2017-09-21T08:05:11.879Z,1021.881
2017-09-21T08:08:07.004Z,1021.915
2017-09-21T08:11:02.232Z,1021.924
2017-09-21T08:13:57.375Z,1021.893
2017-09-21T08:16:52.442Z,1021.900
2017-09-21T08:22:42.698Z,1021.855
2017-09-21T08:25:37.969Z,1021.863
2017-09-21T08:28:33.155Z,1021.852
2017-09-21T08:31:28.331Z,1021.937
2017-09-21T08:34:23.511Z,1021.940
2017-09-21T08:37:18.683Z,1021.890
2017-09-21T08:40:13.937Z,1021.889
2017-09-21T08:46:04.461Z,1021.874
2017-09-21T08:48:59.653Z,1021.873
2017-09-21T08:51:54.815Z,1021.840
2017-09-21T08:54:49.961Z,1021.862
2017-09-21T08:57:45.178Z,1021.869
2017-09-21T09:00:40.386Z,1021.841
2017-09-21T09:03:35.782Z,1021.823
2017-09-21T09:06:31.239Z,1021.804
2017-09-21T09:09:26.806Z,1021.764
2017-09-21T09:12:22.321Z,1021.712
2017-09-21T09:15:17.964Z,1021.699
2017-09-21T09:18:13.406Z,1021.712
2017-09-21T09:21:08.807Z,1021.711
2017-09-21T09:24:04.206Z,1021.715
2017-09-21T09:26:59.738Z,1021.683
2017-09-21T09:29:55.186Z,1021.693
2017-09-21T09:32:50.765Z,1021.668
2017-09-21T09:38:42.104Z,1021.612
2017-09-21T09:41:37.734Z,1021.605
2017-09-21T09:44:33.200Z,1021.594
2017-09-21T09:47:28.699Z,1021.566
2017-09-21T09:50:24.258Z,1021.554
2017-09-21T09:53:19.696Z,1021.540
2017-09-21T09:56:15.194Z,1021.500
2017-09-21T09:59:10.787Z,1021.473
2017-09-21T10:02:06.487Z,1021.407
2017-09-21T10:05:02.163Z,1021.325
2017-09-21T10:07:57.822Z,1021.306
2017-09-21T10:10:53.816Z,1021.308
2017-09-21T10:13:49.505Z,1021.343
2017-09-21T10:16:44.995Z,1021.301
2017-09-21T10:19:40.467Z,1021.249
2017-09-21T10:22:36.016Z,1021.247
2017-09-21T10:25:31.514Z,1021.303
2017-09-21T10:28:27.009Z,1021.276
2017-09-21T10:31:22.396Z,1021.301
2017-09-21T10:34:17.851Z,1021.296
2017-09-21T10:37:13.360Z,1021.306
2017-09-21T10:40:08.777Z,1021.290
2017-09-21T10:43:04.074Z,1021.270
2017-09-21T10:45:59.500Z,1021.298
2017-09-21T10:48:54.918Z,1021.322
2017-09-21T10:51:50.400Z,1021.354
2017-09-21T10:54:45.963Z,1021.383
2017-09-21T10:57:41.490Z,1021.393
2017-09-21T11:00:37.051Z,1021.380
2017-09-21T11:03:32.453Z,1021.351
2017-09-21T11:06:27.896Z,1021.354
2017-09-21T11:09:23.322Z,1021.338
2017-09-21T11:12:18.839Z,1021.327
2017-09-21T11:15:14.088Z,1021.274
2017-09-21T11:18:09.444Z,1021.269
2017-09-21T11:24:00.279Z,1021.259
2017-09-21T11:26:55.573Z,1021.257
2017-09-21T11:29:50.994Z,1021.252
2017-09-21T11:32:46.271Z,1021.274
2017-09-21T11:35:41.580Z,1021.270
2017-09-21T11:38:36.945Z,1021.282
2017-09-21T11:41:32.311Z,1021.327
2017-09-21T11:44:27.542Z,1021.328
2017-09-21T11:47:22.945Z,1021.353
2017-09-21T11:50:18.261Z,1021.359
2017-09-21T11:53:13.721Z,1021.313
2017-09-21T11:59:04.410Z,1021.334
2017-09-21T12:01:59.564Z,1021.305
2017-09-21T12:04:54.900Z,1021.298
2017-09-21T12:10:45.444Z,1021.250
2017-09-21T12:13:40.739Z,1021.272
2017-09-21T12:16:35.937Z,1021.275
2017-09-21T12:19:31.185Z,1021.278
2017-09-21T12:22:26.508Z,1021.294
2017-09-21T12:25:21.780Z,1021.308
2017-09-21T12:28:17.118Z,1021.285
2017-09-21T12:31:12.366Z,1021.287
2017-09-21T12:34:07.555Z,1021.270
2017-09-21T12:37:02.888Z,1021.294
2017-09-21T12:39:58.109Z,1021.308
2017-09-21T12:42:53.423Z,1021.335
2017-09-21T12:45:48.740Z,1021.339
2017-09-21T12:48:44.054Z,1021.325
2017-09-21T12:51:39.362Z,1021.349
2017-09-21T12:54:34.713Z,1021.388
2017-09-21T12:57:29.993Z,1021.401
2017-09-21T13:00:25.297Z,1021.430
2017-09-21T13:03:20.544Z,1021.439
2017-09-21T13:06:15.759Z,1021.488
2017-09-21T13:09:11.026Z,1021.489
2017-09-21T13:17:56.910Z,1021.441
2017-09-21T13:20:52.072Z,1021.402
2017-09-21T13:23:47.307Z,1021.417
2017-09-21T13:26:42.506Z,1021.417
2017-09-21T13:29:37.716Z,1021.392
2017-09-21T13:32:32.978Z,1021.377
2017-09-21T13:35:28.237Z,1021.353
2017-09-21T13:38:23.473Z,1021.343
2017-09-21T13:41:18.681Z,1021.320
2017-09-21T13:44:13.974Z,1021.316
2017-09-21T13:47:09.218Z,1021.278
2017-09-21T13:50:04.445Z,1021.259
2017-09-21T13:52:59.676Z,1021.262
2017-09-21T13:55:54.980Z,1021.245
2017-09-21T13:58:50.249Z,1021.185
2017-09-21T14:01:45.614Z,1021.179
2017-09-21T14:04:40.819Z,1021.158
2017-09-21T14:07:36.041Z,1021.098
2017-09-21T14:10:31.292Z,1021.109
2017-09-21T14:13:26.484Z,1021.142
2017-09-21T14:16:21.763Z,1021.121
2017-09-21T14:19:16.994Z,1021.100
2017-09-21T14:22:12.320Z,1021.078
2017-09-21T14:25:07.530Z,1021.057
2017-09-21T14:28:02.731Z,1021.040
2017-09-21T14:30:57.902Z,1021.002
2017-09-21T14:33:53.220Z,1021.010
2017-09-21T14:36:48.387Z,1020.974
2017-09-21T14:39:43.596Z,1020.949
2017-09-21T14:42:38.787Z,1020.966
2017-09-21T14:45:34.089Z,1020.986
2017-09-21T14:48:29.413Z,1020.985
2017-09-21T14:51:24.694Z,1020.973
2017-09-21T14:54:19.887Z,1020.957
2017-09-21T14:57:15.138Z,1020.955
2017-09-21T15:00:10.425Z,1020.936
2017-09-21T15:03:05.748Z,1020.916
2017-09-21T15:06:00.985Z,1020.899
2017-09-21T15:08:56.275Z,1020.904
2017-09-21T15:11:51.481Z,1020.902
2017-09-21T15:14:46.783Z,1020.889
2017-09-21T15:17:41.960Z,1020.877
2017-09-21T15:20:37.223Z,1020.880
2017-09-21T15:23:32.439Z,1020.860
2017-09-21T15:26:27.758Z,1020.851
2017-09-21T15:29:22.943Z,1020.850
2017-09-21T15:32:18.241Z,1020.840
2017-09-21T15:38:08.526Z,1020.824
2017-09-21T15:41:03.892Z,1020.822
2017-09-21T15:43:59.203Z,1020.834
2017-09-21T15:46:54.442Z,1020.852
2017-09-21T15:49:49.753Z,1020.852
2017-09-21T15:52:45.116Z,1020.888
2017-09-21T15:55:40.327Z,1020.890
2017-09-21T15:58:35.775Z,1020.879
2017-09-21T16:01:30.878Z,1020.870
2017-09-21T16:04:26.151Z,1020.911
2017-09-21T16:07:21.380Z,1020.898
2017-09-21T16:10:16.560Z,1020.882
2017-09-21T16:13:11.828Z,1020.891
2017-09-21T16:16:07.033Z,1020.902
2017-09-21T16:19:02.286Z,1020.891
2017-09-21T16:21:57.523Z,1020.879
2017-09-21T16:24:52.716Z,1020.880
2017-09-21T16:27:47.898Z,1020.916
2017-09-21T16:30:43.177Z,1020.917
2017-09-21T16:33:38.319Z,1020.921
2017-09-21T16:36:33.416Z,1020.896
2017-09-21T16:39:28.576Z,1020.917
2017-09-21T16:42:23.915Z,1020.898
2017-09-21T16:45:19.082Z,1020.886
2017-09-21T16:48:14.162Z,1020.898
2017-09-21T16:51:09.322Z,1020.890
2017-09-21T16:54:04.498Z,1020.904
2017-09-21T16:56:59.633Z,1020.913
2017-09-21T16:59:54.786Z,1020.914
2017-09-21T17:02:49.973Z,1020.951
2017-09-21T17:05:45.166Z,1020.992
2017-09-21T17:08:40.328Z,1021.016
2017-09-21T17:11:35.522Z,1021.007
2017-09-21T17:14:30.692Z,1021.015
2017-09-21T17:17:25.832Z,1021.067
2017-09-21T17:20:20.974Z,1021.063
2017-09-21T17:23:16.165Z,1021.056
2017-09-21T17:26:11.281Z,1021.063
2017-09-21T17:29:06.428Z,1021.105
2017-09-21T17:32:01.521Z,1021.143
2017-09-21T17:34:56.674Z,1021.163
2017-09-21T17:37:51.802Z,1021.210
2017-09-21T17:40:47.039Z,1021.221
2017-09-21T17:43:42.229Z,1021.262
2017-09-21T17:46:37.400Z,1021.276
2017-09-21T17:49:32.482Z,1021.289
2017-09-21T17:52:27.648Z,1021.307
2017-09-21T17:55:22.730Z,1021.282
2017-09-21T17:58:17.942Z,1021.286
2017-09-21T18:01:13.023Z,1021.320
2017-09-21T18:04:08.120Z,1021.314
2017-09-21T18:07:03.263Z,1021.325
2017-09-21T18:09:58.363Z,1021.341
2017-09-21T18:12:53.480Z,1021.334
2017-09-21T18:15:48.501Z,1021.284
2017-09-21T18:18:43.605Z,1021.256
2017-09-21T18:21:38.659Z,1021.210
2017-09-21T18:24:33.805Z,1021.201
2017-09-21T18:27:28.886Z,1021.191
2017-09-21T18:30:23.947Z,1021.182
2017-09-21T18:33:19.075Z,1021.185
2017-09-21T18:39:09.370Z,1021.188
2017-09-21T18:42:04.442Z,1021.212
2017-09-21T18:44:59.555Z,1021.223
2017-09-21T18:47:54.625Z,1021.248
2017-09-21T18:53:44.732Z,1021.328
2017-09-21T18:56:39.852Z,1021.375
2017-09-21T18:59:34.850Z,1021.396
2017-09-21T19:02:29.894Z,1021.413
2017-09-21T19:05:25.113Z,1021.414
2017-09-21T19:08:20.168Z,1021.432
2017-09-21T19:11:15.242Z,1021.456
2017-09-21T19:17:05.416Z,1021.440
2017-09-21T19:20:00.576Z,1021.453
2017-09-21T19:22:55.676Z,1021.491
2017-09-21T19:25:50.843Z,1021.506
2017-09-21T19:28:45.927Z,1021.480
2017-09-21T19:31:40.988Z,1021.485
2017-09-21T19:34:36.089Z,1021.509
2017-09-21T19:37:31.173Z,1021.531
2017-09-21T19:40:26.214Z,1021.526
2017-09-21T19:47:41.116Z,1021.569
2017-09-21T19:50:25.428Z,1021.528
2017-09-21T19:53:19.738Z,1021.514
2017-09-21T19:56:14.544Z,1021.513
2017-09-21T20:02:04.467Z,1021.496
2017-09-21T20:04:59.553Z,1021.512
2017-09-21T20:07:54.636Z,1021.547
2017-09-21T20:16:39.975Z,1021.584
2017-09-21T20:19:24.040Z,1021.506
2017-09-21T20:22:18.150Z,1021.533
2017-09-21T20:25:12.874Z,1021.557
2017-09-21T20:28:07.739Z,1021.566
2017-09-21T20:39:25.968Z,1021.560
2017-09-21T20:42:20.102Z,1021.566
2017-09-21T20:45:14.733Z,1021.573
2017-09-21T20:48:09.646Z,1021.587
2017-09-21T20:51:04.589Z,1021.566
2017-09-21T20:58:53.418Z,1021.610
2017-09-21T21:01:37.481Z,1021.615
2017-09-21T21:04:31.606Z,1021.618
2017-09-21T21:07:26.342Z,1021.638
2017-09-21T21:25:19.496Z,1021.514
2017-09-21T21:28:13.540Z,1021.494
2017-09-21T21:38:40.135Z,1021.422
2017-09-21T21:41:24.118Z,1021.412
2017-09-21T21:44:18.298Z,1021.423
2017-09-21T21:47:12.976Z,1021.440
2017-09-21T22:00:06.823Z,1021.368
2017-09-21T22:02:50.695Z,1021.376
2017-09-21T22:05:44.724Z,1021.407
2017-09-21T22:17:07.871Z,1021.341
2017-09-21T22:19:51.982Z,1021.348
2017-09-21T22:22:46.022Z,1021.340
2017-09-21T22:35:51.308Z,1021.275
2017-09-21T22:38:35.223Z,1021.263
2017-09-21T22:41:29.261Z,1021.248
2017-09-21T22:44:23.829Z,1021.276
2017-09-21T22:59:50.202Z,1021.226
2017-09-21T23:02:44.139Z,1021.259
2017-09-21T23:05:38.774Z,1021.275
2017-09-21T23:17:02.112Z,1021.387
2017-09-21T23:19:46.003Z,1021.351
2017-09-21T23:22:40.096Z,1021.359
2017-09-21T23:25:34.816Z,1021.355
2017-09-21T23:38:28.541Z,1021.392
2017-09-21T23:41:12.338Z,1021.372
2017-09-21T23:44:06.476Z,1021.344
2017-09-21T23:54:10.523Z,1021.287
2017-09-21T23:56:54.457Z,1021.274
2017-09-21T23:59:48.465Z,1021.283
